createdAt,value
2018-07-07T00:00:57.420Z,13.10
2018-07-07T00:03:26.099Z,12.80
2018-07-07T00:05:54.791Z,12.83
2018-07-07T00:08:23.480Z,12.73
2018-07-07T00:10:58.079Z,13.17
2018-07-07T00:13:26.771Z,12.67
2018-07-07T00:15:55.414Z,12.27
2018-07-07T00:18:24.071Z,12.27
2018-07-07T00:20:53.082Z,11.37
2018-07-07T00:23:21.707Z,11.80
2018-07-07T00:25:50.348Z,11.87
2018-07-07T00:28:18.982Z,12.03
2018-07-07T00:30:47.657Z,11.20
2018-07-07T00:33:16.308Z,11.17
2018-07-07T00:35:49.081Z,11.87
2018-07-07T00:38:17.714Z,11.57
2018-07-07T00:40:46.426Z,11.43
2018-07-07T00:43:15.104Z,11.47
2018-07-07T00:45:43.781Z,12.50
2018-07-07T00:48:12.726Z,11.83
2018-07-07T00:50:41.467Z,12.30
2018-07-07T00:53:10.264Z,11.13
2018-07-07T00:55:38.915Z,12.87
2018-07-07T00:58:07.610Z,12.33
2018-07-07T01:00:49.359Z,11.07
2018-07-07T01:03:18.422Z,13.07
2018-07-07T01:05:48.103Z,13.50
2018-07-07T01:08:17.379Z,12.60
2018-07-07T01:10:46.090Z,12.13
2018-07-07T01:13:15.446Z,12.73
2018-07-07T01:15:44.120Z,13.20
2018-07-07T01:18:12.899Z,13.07
2018-07-07T01:20:41.717Z,14.17
2018-07-07T01:23:10.494Z,12.47
2018-07-07T01:25:39.154Z,12.57
2018-07-07T01:28:07.866Z,12.77
2018-07-07T01:30:36.554Z,13.90
2018-07-07T01:33:05.250Z,13.43
2018-07-07T01:35:33.891Z,12.70
2018-07-07T01:38:02.599Z,13.20
2018-07-07T01:40:31.262Z,12.97
2018-07-07T01:42:59.952Z,13.00
2018-07-07T01:45:28.602Z,12.83
2018-07-07T01:47:57.247Z,12.87
2018-07-07T01:50:25.946Z,12.33
2018-07-07T01:52:54.616Z,12.57
2018-07-07T01:55:23.275Z,12.50
2018-07-07T01:57:51.932Z,11.57
2018-07-07T02:00:20.625Z,12.00
2018-07-07T02:02:49.280Z,11.67
2018-07-07T02:05:18.067Z,12.10
2018-07-07T02:07:46.744Z,11.33
2018-07-07T02:10:15.742Z,12.07
2018-07-07T02:12:44.410Z,11.43
2018-07-07T02:15:13.103Z,11.70
2018-07-07T02:17:41.787Z,10.93
2018-07-07T02:20:10.465Z,12.10
2018-07-07T02:22:39.207Z,11.80
2018-07-07T02:25:07.925Z,11.87
2018-07-07T02:27:36.626Z,12.87
2018-07-07T02:30:07.121Z,11.63
2018-07-07T02:32:35.869Z,13.30
2018-07-07T02:35:04.711Z,12.30
2018-07-07T02:37:33.531Z,12.67
2018-07-07T02:40:02.204Z,12.53
2018-07-07T02:42:30.892Z,13.10
2018-07-07T02:44:59.590Z,12.27
2018-07-07T02:47:28.628Z,13.70
2018-07-07T02:49:57.400Z,12.03
2018-07-07T02:52:26.097Z,12.13
2018-07-07T02:54:54.821Z,13.40
2018-07-07T02:57:23.461Z,12.70
2018-07-07T02:59:52.199Z,12.67
2018-07-07T03:02:20.915Z,12.77
2018-07-07T03:04:49.672Z,12.30
2018-07-07T03:07:18.373Z,12.63
2018-07-07T03:09:47.053Z,12.70
2018-07-07T03:12:15.730Z,13.37
2018-07-07T03:14:44.433Z,12.77
2018-07-07T03:17:13.216Z,13.10
2018-07-07T03:19:41.892Z,15.53
2018-07-07T03:22:10.723Z,13.97
2018-07-07T03:24:39.476Z,14.10
2018-07-07T03:27:08.190Z,13.67
2018-07-07T03:29:36.876Z,12.70
2018-07-07T03:32:05.690Z,14.80
2018-07-07T03:34:34.377Z,14.00
2018-07-07T03:37:03.031Z,15.13
2018-07-07T03:39:31.723Z,13.93
2018-07-07T03:42:00.388Z,15.37
2018-07-07T03:44:29.027Z,14.23
2018-07-07T03:46:57.755Z,17.93
2018-07-07T03:49:26.435Z,18.30
2018-07-07T03:51:55.180Z,20.33
2018-07-07T03:54:23.883Z,20.17
2018-07-07T03:56:52.562Z,17.97
2018-07-07T03:59:21.191Z,16.97
2018-07-07T04:01:49.883Z,17.07
2018-07-07T04:04:18.554Z,17.27
2018-07-07T04:06:47.315Z,16.47
2018-07-07T04:09:16.077Z,17.50
2018-07-07T04:11:44.713Z,18.43
2018-07-07T04:14:13.408Z,18.63
2018-07-07T04:16:42.058Z,17.60
2018-07-07T04:19:10.716Z,18.07
2018-07-07T04:21:39.414Z,18.60
2018-07-07T04:24:08.254Z,17.47
2018-07-07T04:26:36.956Z,18.57
2018-07-07T04:29:05.707Z,21.07
2018-07-07T04:31:34.406Z,21.23
2018-07-07T04:34:03.076Z,20.60
2018-07-07T04:36:31.734Z,20.97
2018-07-07T04:39:00.751Z,23.60
2018-07-07T04:41:29.425Z,21.50
2018-07-07T04:43:58.123Z,19.40
2018-07-07T04:46:26.764Z,21.57
2018-07-07T04:48:55.406Z,22.67
2018-07-07T04:51:24.694Z,22.83
2018-07-07T04:53:53.377Z,21.57
2018-07-07T04:56:22.075Z,22.07
2018-07-07T04:58:50.759Z,21.00
2018-07-07T05:01:19.490Z,19.63
2018-07-07T05:03:48.222Z,20.20
2018-07-07T05:06:16.976Z,21.07
2018-07-07T05:08:45.683Z,20.93
2018-07-07T05:11:14.770Z,22.47
2018-07-07T05:13:43.511Z,21.63
2018-07-07T05:16:12.287Z,20.97
2018-07-07T05:18:41.011Z,22.93
2018-07-07T05:21:09.772Z,21.40
2018-07-07T05:23:38.498Z,22.33
2018-07-07T05:26:07.211Z,20.90
2018-07-07T05:28:36.183Z,21.03
2018-07-07T05:31:04.868Z,21.00
2018-07-07T05:33:33.587Z,21.60
2018-07-07T05:36:02.284Z,21.20
2018-07-07T05:38:30.979Z,21.00
2018-07-07T05:40:59.636Z,21.60
2018-07-07T05:43:28.283Z,22.70
2018-07-07T05:45:57.007Z,20.73
2018-07-07T05:48:25.730Z,21.87
2018-07-07T05:50:54.483Z,22.77
2018-07-07T05:53:23.183Z,22.93
2018-07-07T05:55:51.888Z,22.97
2018-07-07T05:58:20.588Z,23.60
2018-07-07T06:00:49.304Z,21.07
2018-07-07T06:03:18.148Z,20.83
2018-07-07T06:05:46.936Z,21.13
2018-07-07T06:08:15.622Z,22.23
2018-07-07T06:10:44.415Z,21.60
2018-07-07T06:13:13.137Z,22.93
2018-07-07T06:15:41.967Z,21.10
2018-07-07T06:18:11.383Z,21.60
2018-07-07T06:20:40.031Z,27.70
2018-07-07T06:23:08.752Z,21.40
2018-07-07T06:25:37.490Z,22.27
2018-07-07T06:28:06.207Z,22.37
2018-07-07T06:30:34.881Z,20.40
2018-07-07T06:33:03.556Z,20.13
2018-07-07T06:35:32.207Z,20.63
2018-07-07T06:38:00.868Z,19.80
2018-07-07T06:40:29.748Z,19.07
2018-07-07T06:42:58.478Z,19.97
2018-07-07T06:45:27.219Z,20.87
2018-07-07T06:47:55.903Z,18.93
2018-07-07T06:50:24.546Z,18.50
2018-07-07T06:52:53.312Z,17.73
2018-07-07T06:55:21.954Z,18.60
2018-07-07T06:57:50.677Z,18.27
2018-07-07T07:00:19.368Z,20.50
2018-07-07T07:02:48.084Z,18.83
2018-07-07T07:05:16.839Z,19.67
2018-07-07T07:07:45.657Z,19.70
2018-07-07T07:10:14.445Z,19.93
2018-07-07T07:12:43.162Z,19.70
2018-07-07T07:15:11.903Z,20.77
2018-07-07T07:17:40.608Z,23.07
2018-07-07T07:20:09.318Z,21.13
2018-07-07T07:22:37.984Z,21.10
2018-07-07T07:25:06.931Z,22.40
2018-07-07T07:27:35.624Z,20.07
2018-07-07T07:30:06.625Z,20.60
2018-07-07T07:32:35.358Z,20.73
2018-07-07T07:35:04.132Z,19.97
2018-07-07T07:37:32.808Z,19.57
2018-07-07T07:40:01.619Z,18.50
2018-07-07T07:42:30.374Z,17.97
2018-07-07T07:44:59.097Z,17.20
2018-07-07T07:47:28.784Z,17.53
2018-07-07T07:49:57.495Z,16.53
2018-07-07T07:52:26.474Z,15.25
2018-07-07T07:54:55.783Z,14.25
2018-07-07T07:57:25.373Z,21.35
2018-07-07T07:59:54.048Z,14.43
2018-07-07T08:02:22.743Z,14.20
2018-07-07T08:04:51.433Z,14.05
2018-07-07T08:07:20.116Z,14.80
2018-07-07T08:09:48.834Z,14.70
2018-07-07T08:12:17.815Z,16.87
2018-07-07T08:14:46.480Z,14.63
2018-07-07T08:17:15.295Z,17.17
2018-07-07T08:19:44.051Z,16.25
2018-07-07T08:22:12.739Z,17.15
2018-07-07T08:24:41.391Z,16.27
2018-07-07T08:27:10.071Z,17.27
2018-07-07T08:29:38.756Z,17.02
2018-07-07T08:32:07.456Z,17.35
2018-07-07T08:34:36.243Z,17.87
2018-07-07T08:37:05.226Z,16.50
2018-07-07T08:39:33.898Z,17.25
2018-07-07T08:42:02.744Z,16.20
2018-07-07T08:44:31.568Z,17.87
2018-07-07T08:47:00.208Z,16.15
2018-07-07T08:49:28.958Z,15.83
2018-07-07T08:51:57.561Z,16.15
2018-07-07T08:54:26.207Z,16.02
2018-07-07T08:56:54.891Z,14.85
2018-07-07T08:59:23.907Z,14.73
2018-07-07T09:01:52.611Z,15.78
2018-07-07T09:04:21.250Z,15.50
2018-07-07T09:06:50.130Z,15.70
2018-07-07T09:09:18.871Z,15.28
2018-07-07T09:11:48.095Z,15.55
2018-07-07T09:14:16.804Z,15.58
2018-07-07T09:16:45.408Z,16.80
2018-07-07T09:19:14.155Z,16.15
2018-07-07T09:21:42.868Z,15.18
2018-07-07T09:24:11.509Z,14.90
2018-07-07T09:26:40.290Z,15.48
2018-07-07T09:29:17.835Z,13.08
2018-07-07T09:31:55.292Z,13.25
2018-07-07T09:34:24.011Z,13.03
2018-07-07T09:36:52.650Z,15.37
2018-07-07T09:39:38.315Z,15.40
2018-07-07T09:42:06.987Z,16.70
2018-07-07T09:44:35.639Z,17.53
2018-07-07T09:47:04.363Z,18.43
2018-07-07T09:49:33.055Z,18.57
2018-07-07T09:52:01.766Z,18.80
2018-07-07T09:54:45.362Z,19.93
2018-07-07T09:57:14.042Z,19.50
2018-07-07T09:59:42.782Z,22.13
2018-07-07T10:02:22.184Z,20.27
2018-07-07T10:05:01.835Z,19.93
2018-07-07T10:07:30.587Z,19.37
2018-07-07T10:09:59.319Z,20.13
2018-07-07T10:12:27.987Z,19.53
2018-07-07T10:14:58.111Z,20.30
2018-07-07T10:17:26.764Z,20.83
2018-07-07T10:19:55.517Z,21.07
2018-07-07T10:22:24.312Z,21.00
2018-07-07T10:24:52.961Z,22.07
2018-07-07T10:27:21.644Z,21.77
2018-07-07T10:29:50.458Z,21.90
2018-07-07T10:32:19.196Z,21.47
2018-07-07T10:34:47.907Z,21.40
2018-07-07T10:37:16.576Z,21.10
2018-07-07T10:39:45.359Z,20.13
2018-07-07T10:42:14.183Z,21.10
2018-07-07T10:44:42.991Z,21.03
2018-07-07T10:47:11.736Z,17.77
2018-07-07T10:49:40.400Z,19.13
2018-07-07T10:52:09.200Z,15.00
2018-07-07T10:54:38.783Z,17.17
2018-07-07T10:57:07.481Z,19.03
2018-07-07T10:59:36.151Z,15.00
2018-07-07T11:02:04.839Z,15.07
2018-07-07T11:04:33.883Z,12.27
2018-07-07T11:07:02.503Z,15.10
2018-07-07T11:09:31.299Z,14.77
2018-07-07T11:11:59.974Z,14.03
2018-07-07T11:14:28.651Z,13.77
2018-07-07T11:16:57.311Z,14.80
2018-07-07T11:19:25.998Z,13.40
2018-07-07T11:21:54.645Z,13.70
2018-07-07T11:24:23.328Z,10.00
2018-07-07T11:26:52.012Z,10.90
2018-07-07T11:29:22.952Z,11.10
2018-07-07T11:31:51.674Z,10.57
2018-07-07T11:34:20.313Z,10.57
2018-07-07T11:36:49.071Z,9.73
2018-07-07T11:39:17.677Z,9.00
2018-07-07T11:41:46.863Z,7.97
2018-07-07T11:44:15.700Z,7.50
2018-07-07T11:46:44.604Z,8.20
2018-07-07T11:49:13.281Z,7.73
2018-07-07T11:51:41.954Z,8.87
2018-07-07T11:54:10.601Z,9.60
2018-07-07T11:56:39.272Z,12.00
2018-07-07T11:59:07.973Z,14.80
2018-07-07T12:01:36.716Z,8.87
2018-07-07T12:04:05.474Z,12.07
2018-07-07T12:06:34.185Z,14.20
2018-07-07T12:09:02.958Z,17.57
2018-07-07T12:11:31.718Z,14.10
2018-07-07T12:14:00.355Z,13.93
2018-07-07T12:16:29.044Z,14.63
2018-07-07T12:18:57.756Z,12.97
2018-07-07T12:21:26.555Z,13.97
2018-07-07T12:23:55.264Z,16.27
2018-07-07T12:26:24.006Z,13.20
2018-07-07T12:28:52.731Z,25.27
2018-07-07T12:31:21.410Z,11.50
2018-07-07T12:33:50.149Z,15.00
2018-07-07T12:36:18.862Z,10.40
2018-07-07T12:38:47.602Z,9.60
2018-07-07T12:41:16.326Z,10.47
2018-07-07T12:43:45.096Z,8.53
2018-07-07T12:46:13.774Z,8.03
2018-07-07T12:48:42.413Z,6.40
2018-07-07T12:51:11.123Z,6.33
2018-07-07T12:53:39.844Z,5.47
2018-07-07T12:56:08.485Z,6.73
2018-07-07T12:58:37.203Z,7.70
2018-07-07T13:01:06.005Z,7.40
2018-07-07T13:03:34.680Z,6.07
2018-07-07T13:06:04.309Z,5.43
2018-07-07T13:08:32.967Z,5.67
2018-07-07T13:11:01.666Z,9.27
2018-07-07T13:13:30.419Z,9.47
2018-07-07T13:15:59.153Z,8.70
2018-07-07T13:18:27.862Z,8.40
2018-07-07T13:20:56.692Z,10.30
2018-07-07T13:23:25.378Z,8.20
2018-07-07T13:25:54.182Z,8.70
2018-07-07T13:28:23.034Z,8.40
2018-07-07T13:30:51.841Z,7.47
2018-07-07T13:33:20.500Z,7.83
2018-07-07T13:35:49.152Z,7.30
2018-07-07T13:38:17.796Z,6.60
2018-07-07T13:40:46.460Z,6.83
2018-07-07T13:43:15.096Z,7.47
2018-07-07T13:45:43.712Z,6.53
2018-07-07T13:48:12.509Z,6.43
2018-07-07T13:50:41.171Z,6.77
2018-07-07T13:53:09.830Z,7.20
2018-07-07T13:55:38.515Z,7.43
2018-07-07T13:58:07.903Z,8.13
2018-07-07T14:00:36.611Z,8.70
2018-07-07T14:03:05.360Z,9.40
2018-07-07T14:05:34.065Z,8.60
2018-07-07T14:08:02.719Z,8.43
2018-07-07T14:10:31.472Z,8.77
2018-07-07T14:13:00.130Z,8.80
2018-07-07T14:15:28.783Z,8.53
2018-07-07T14:17:57.486Z,8.90
2018-07-07T14:20:26.815Z,8.13
2018-07-07T14:22:55.580Z,8.57
2018-07-07T14:25:24.241Z,8.27
2018-07-07T14:27:52.974Z,8.90
2018-07-07T14:30:21.627Z,8.00
2018-07-07T14:32:50.374Z,7.80
2018-07-07T14:35:19.042Z,9.00
2018-07-07T14:37:47.707Z,8.43
2018-07-07T14:40:16.511Z,7.13
2018-07-07T14:42:53.346Z,8.40
2018-07-07T14:45:23.911Z,8.17
2018-07-07T14:47:53.658Z,8.70
2018-07-07T14:50:22.528Z,8.57
2018-07-07T14:52:51.227Z,10.60
2018-07-07T14:55:21.296Z,8.83
2018-07-07T14:57:50.068Z,9.10
2018-07-07T15:00:20.932Z,9.07
2018-07-07T15:02:50.783Z,9.17
2018-07-07T15:05:19.512Z,8.93
2018-07-07T15:07:48.960Z,8.83
2018-07-07T15:10:18.046Z,9.63
2018-07-07T15:12:47.612Z,9.93
2018-07-07T15:15:16.567Z,8.93
2018-07-07T15:17:46.084Z,10.70
2018-07-07T15:20:14.827Z,9.70
2018-07-07T15:22:43.641Z,10.30
2018-07-07T15:25:12.298Z,10.30
2018-07-07T15:27:41.014Z,10.90
2018-07-07T15:30:10.511Z,10.53
2018-07-07T15:32:39.365Z,10.20
2018-07-07T15:35:08.263Z,10.17
2018-07-07T15:37:37.085Z,10.57
2018-07-07T15:40:06.223Z,11.23
2018-07-07T15:42:35.013Z,10.00
2018-07-07T15:45:03.716Z,10.50
2018-07-07T15:47:32.652Z,11.80
2018-07-07T15:50:01.413Z,9.43
2018-07-07T15:52:30.071Z,9.87
2018-07-07T15:54:58.782Z,9.97
2018-07-07T15:57:27.437Z,11.50
2018-07-07T15:59:56.214Z,11.87
2018-07-07T16:02:24.977Z,13.90
2018-07-07T16:04:53.684Z,13.53
2018-07-07T16:07:22.478Z,13.87
2018-07-07T16:09:51.351Z,13.57
2018-07-07T16:12:20.007Z,14.53
2018-07-07T16:14:48.794Z,14.00
2018-07-07T16:17:17.480Z,13.67
2018-07-07T16:19:46.185Z,13.23
2018-07-07T16:22:14.878Z,13.17
2018-07-07T16:24:43.550Z,13.53
2018-07-07T16:27:12.295Z,14.27
2018-07-07T16:29:40.974Z,14.70
2018-07-07T16:32:09.673Z,15.70
2018-07-07T16:34:38.494Z,17.13
2018-07-07T16:37:07.179Z,15.90
2018-07-07T16:39:35.902Z,14.60
2018-07-07T16:42:04.654Z,12.60
2018-07-07T16:44:33.743Z,11.53
2018-07-07T16:47:03.210Z,11.20
2018-07-07T16:49:32.292Z,9.80
2018-07-07T16:52:01.991Z,9.80
2018-07-07T16:54:30.862Z,9.47
2018-07-07T16:57:00.010Z,18.10
2018-07-07T16:59:30.026Z,13.07
2018-07-07T17:01:58.907Z,12.87
2018-07-07T17:04:27.925Z,16.40
2018-07-07T17:06:57.332Z,18.40
2018-07-07T17:09:26.095Z,29.33
2018-07-07T17:11:54.940Z,30.90
2018-07-07T17:14:23.840Z,14.43
2018-07-07T17:16:52.954Z,12.20
2018-07-07T17:19:21.762Z,13.70
2018-07-07T17:21:50.605Z,10.20
2018-07-07T17:24:19.326Z,12.07
2018-07-07T17:26:48.110Z,12.77
2018-07-07T17:29:16.910Z,13.60
2018-07-07T17:31:45.943Z,12.20
2018-07-07T17:34:14.820Z,13.93
2018-07-07T17:36:44.054Z,13.67
2018-07-07T17:39:13.066Z,13.37
2018-07-07T17:41:41.895Z,17.87
2018-07-07T17:44:10.752Z,12.63
2018-07-07T17:46:43.923Z,11.37
2018-07-07T17:49:12.717Z,7.83
2018-07-07T17:51:41.443Z,8.83
2018-07-07T17:54:10.310Z,8.73
2018-07-07T17:56:46.005Z,9.80
2018-07-07T17:59:14.734Z,10.67
2018-07-07T18:01:43.535Z,9.97
2018-07-07T18:04:12.287Z,10.40
2018-07-07T18:06:40.960Z,11.43
2018-07-07T18:09:10.039Z,10.87
2018-07-07T18:11:38.802Z,10.73
2018-07-07T18:14:07.584Z,10.73
2018-07-07T18:16:36.359Z,10.00
2018-07-07T18:19:05.175Z,11.63
2018-07-07T18:21:33.896Z,11.80
2018-07-07T18:24:02.612Z,12.63
2018-07-07T18:26:31.329Z,12.77
2018-07-07T18:29:00.068Z,15.30
2018-07-07T18:31:28.836Z,18.97
2018-07-07T18:33:57.573Z,15.33
2018-07-07T18:36:26.759Z,16.43
2018-07-07T18:38:55.420Z,15.07
2018-07-07T18:41:25.062Z,15.70
2018-07-07T18:43:53.790Z,15.17
2018-07-07T18:46:22.435Z,15.17
2018-07-07T18:48:51.907Z,14.50
2018-07-07T18:51:20.632Z,15.03
2018-07-07T18:53:49.303Z,18.13
2018-07-07T18:56:18.103Z,19.63
2018-07-07T18:58:46.883Z,17.93
2018-07-07T19:01:15.820Z,15.03
2018-07-07T19:03:44.585Z,15.40
2018-07-07T19:06:13.452Z,14.97
2018-07-07T19:08:42.106Z,15.07
2018-07-07T19:11:10.830Z,14.70
2018-07-07T19:13:39.614Z,14.73
2018-07-07T19:16:08.305Z,12.00
2018-07-07T19:18:36.981Z,13.23
2018-07-07T19:21:10.890Z,13.67
2018-07-07T19:23:44.805Z,13.90
2018-07-07T19:26:18.713Z,15.50
2018-07-07T19:28:47.410Z,15.77
2018-07-07T19:31:16.091Z,14.53
2018-07-07T19:33:49.892Z,14.83
2018-07-07T19:36:23.700Z,13.77
2018-07-07T19:38:52.452Z,14.83
2018-07-07T19:41:21.179Z,14.87
2018-07-07T19:43:49.991Z,14.83
2018-07-07T19:46:18.758Z,15.23
2018-07-07T19:48:47.408Z,17.67
2018-07-07T19:51:16.360Z,17.90
2018-07-07T19:53:45.395Z,14.63
2018-07-07T19:56:14.102Z,16.03
2018-07-07T19:58:44.105Z,13.23
2018-07-07T20:01:12.786Z,12.93
2018-07-07T20:03:41.455Z,13.50
2018-07-07T20:06:10.159Z,13.57
2018-07-07T20:08:38.845Z,13.30
2018-07-07T20:11:07.557Z,12.70
2018-07-07T20:13:36.293Z,13.30
2018-07-07T20:16:09.852Z,13.87
2018-07-07T20:19:52.511Z,12.53
2018-07-07T20:22:21.247Z,14.40
2018-07-07T20:24:49.952Z,15.27
2018-07-07T20:27:23.708Z,15.40
2018-07-07T20:29:52.374Z,14.17
2018-07-07T20:32:26.246Z,14.37
2018-07-07T20:34:54.914Z,14.63
2018-07-07T20:37:23.613Z,15.40
2018-07-07T20:39:52.294Z,14.43
2018-07-07T20:42:20.984Z,14.43
2018-07-07T20:44:49.711Z,16.33
2018-07-07T20:47:18.347Z,12.90
2018-07-07T20:49:47.011Z,19.57
2018-07-07T20:52:15.676Z,15.20
2018-07-07T20:54:44.419Z,12.97
2018-07-07T20:57:13.044Z,12.13
2018-07-07T20:59:41.796Z,12.37
2018-07-07T21:02:10.614Z,13.73
2018-07-07T21:04:39.188Z,12.93
2018-07-07T21:07:07.883Z,14.10
2018-07-07T21:09:36.733Z,13.53
2018-07-07T21:12:05.419Z,12.60
2018-07-07T21:14:34.169Z,12.70
2018-07-07T21:17:02.962Z,13.23
2018-07-07T21:19:31.587Z,13.97
2018-07-07T21:22:00.360Z,14.00
2018-07-07T21:24:29.083Z,14.07
2018-07-07T21:26:57.740Z,13.30
2018-07-07T21:29:26.527Z,14.40
2018-07-07T21:31:55.103Z,14.47
2018-07-07T21:34:23.780Z,14.10
2018-07-07T21:36:52.571Z,14.27
2018-07-07T21:39:21.222Z,14.87
2018-07-07T21:41:49.951Z,15.23
2018-07-07T21:44:18.742Z,13.80
2018-07-07T21:46:47.405Z,15.03
2018-07-07T21:49:16.095Z,15.03
2018-07-07T21:51:44.759Z,14.90
2018-07-07T21:54:13.772Z,15.20
2018-07-07T21:56:42.517Z,15.43
2018-07-07T21:59:16.336Z,16.63
2018-07-07T22:01:56.395Z,14.17
2018-07-07T22:04:30.910Z,15.27
2018-07-07T22:07:05.197Z,14.80
2018-07-07T22:09:34.796Z,14.63
2018-07-07T22:12:03.881Z,14.60
2018-07-07T22:14:32.892Z,14.73
2018-07-07T22:17:01.623Z,14.80
2018-07-07T22:19:30.301Z,14.67
2018-07-07T22:22:02.623Z,14.30
2018-07-07T22:24:31.321Z,14.40
2018-07-07T22:27:01.303Z,14.40
2018-07-07T22:29:30.062Z,13.90
2018-07-07T22:32:00.011Z,13.67
2018-07-07T22:34:32.581Z,14.30
2018-07-07T22:37:01.419Z,13.53
2018-07-07T22:39:34.086Z,13.00
2018-07-07T22:42:04.956Z,13.93
2018-07-07T22:44:34.315Z,12.97
2018-07-07T22:47:03.018Z,13.97
2018-07-07T22:49:32.003Z,13.50
2018-07-07T22:52:00.715Z,13.00
2018-07-07T22:54:29.485Z,12.50
2018-07-07T22:56:58.214Z,13.53
2018-07-07T22:59:26.897Z,12.90
2018-07-07T23:01:55.571Z,14.03
2018-07-07T23:04:24.255Z,12.50
2018-07-07T23:06:53.162Z,12.33
2018-07-07T23:09:21.856Z,12.33
2018-07-07T23:11:50.577Z,11.93
2018-07-07T23:14:19.249Z,12.60
2018-07-07T23:16:47.951Z,11.40
2018-07-07T23:19:16.591Z,12.33
2018-07-07T23:21:45.299Z,11.70
2018-07-07T23:24:14.051Z,12.30
2018-07-07T23:26:42.690Z,12.33
2018-07-07T23:29:11.356Z,12.63
2018-07-07T23:31:40.042Z,11.67
2018-07-07T23:34:08.793Z,11.93
2018-07-07T23:36:37.489Z,11.77
2018-07-07T23:39:06.823Z,11.63
2018-07-07T23:41:35.518Z,12.33
2018-07-07T23:44:04.332Z,11.83
2018-07-07T23:46:33.031Z,11.83
2018-07-07T23:49:01.712Z,11.80
2018-07-07T23:51:30.424Z,12.00
2018-07-07T23:53:59.124Z,12.03
2018-07-07T23:56:27.836Z,11.63
2018-07-07T23:58:56.532Z,12.20
